createdAt,value
2022-09-04T00:00:01.755Z,2.33
2022-09-04T00:03:02.250Z,2.58
2022-09-04T00:05:37.832Z,2.60
2022-09-04T00:08:11.679Z,2.50
2022-09-04T00:11:18.811Z,1.83
2022-09-04T00:13:58.606Z,2.53
2022-09-04T00:16:29.031Z,2.70
2022-09-04T00:19:14.662Z,2.53
2022-09-04T00:21:52.325Z,3.13
2022-09-04T00:24:24.991Z,2.75
2022-09-04T00:27:05.918Z,2.67
2022-09-04T00:29:49.535Z,3.00
2022-09-04T00:32:38.513Z,2.83
2022-09-04T00:35:20.341Z,2.80
2022-09-04T00:38:15.726Z,2.85
2022-09-04T00:41:15.144Z,2.65
2022-09-04T00:43:47.711Z,2.58
2022-09-04T00:46:27.301Z,2.80
2022-09-04T00:49:30.036Z,2.53
2022-09-04T00:52:02.480Z,2.53
2022-09-04T00:54:53.961Z,2.53
2022-09-04T00:57:44.469Z,2.22
2022-09-04T01:00:19.642Z,2.72
2022-09-04T01:03:08.076Z,2.40
2022-09-04T01:05:55.000Z,2.83
2022-09-04T01:08:41.269Z,3.20
2022-09-04T01:11:26.402Z,2.90
2022-09-04T01:14:14.427Z,2.70
2022-09-04T01:16:55.222Z,3.35
2022-09-04T01:19:30.565Z,3.10
2022-09-04T01:22:21.539Z,3.75
2022-09-04T01:25:16.019Z,3.20
2022-09-04T01:28:11.518Z,3.35
2022-09-04T01:30:50.859Z,3.47
2022-09-04T01:33:31.557Z,3.13
2022-09-04T01:36:34.892Z,3.60
2022-09-04T01:39:02.536Z,3.30
2022-09-04T01:41:43.043Z,4.30
2022-09-04T01:44:11.481Z,4.00
2022-09-04T01:46:41.292Z,3.50
2022-09-04T01:49:28.878Z,3.72
2022-09-04T01:52:23.431Z,3.85
2022-09-04T01:54:58.615Z,2.95
2022-09-04T01:57:47.835Z,2.85
2022-09-04T02:00:18.239Z,3.85
2022-09-04T02:02:53.390Z,3.10
2022-09-04T02:06:04.515Z,3.50
2022-09-04T02:08:56.230Z,3.55
2022-09-04T02:11:28.744Z,3.35
2022-09-04T02:14:22.140Z,3.83
2022-09-04T02:16:58.932Z,3.28
2022-09-04T02:19:46.714Z,3.83
2022-09-04T02:22:33.139Z,3.40
2022-09-04T02:25:27.884Z,3.25
2022-09-04T02:28:03.962Z,3.45
2022-09-04T02:30:42.299Z,3.70
2022-09-04T02:33:29.043Z,3.17
2022-09-04T02:36:10.169Z,3.60
2022-09-04T02:38:45.544Z,3.13
2022-09-04T02:41:21.706Z,4.00
2022-09-04T02:44:10.681Z,3.30
2022-09-04T02:47:12.176Z,3.03
2022-09-04T02:49:51.829Z,3.45
2022-09-04T02:52:47.303Z,3.40
2022-09-04T02:55:39.879Z,3.47
2022-09-04T02:58:25.892Z,3.22
2022-09-04T03:01:10.894Z,3.80
2022-09-04T03:03:40.766Z,4.05
2022-09-04T03:06:18.337Z,3.25
2022-09-04T03:09:03.455Z,3.42
2022-09-04T03:11:45.162Z,4.10
2022-09-04T03:14:34.342Z,3.92
2022-09-04T03:17:38.064Z,3.35
2022-09-04T03:20:27.619Z,2.85
2022-09-04T03:23:20.885Z,2.67
2022-09-04T03:26:12.393Z,2.72
2022-09-04T03:28:44.921Z,3.58
2022-09-04T03:31:38.633Z,3.70
2022-09-04T03:34:41.959Z,3.15
2022-09-04T03:37:37.109Z,3.08
2022-09-04T03:40:19.011Z,2.88
2022-09-04T03:43:21.118Z,2.95
2022-09-04T03:46:06.455Z,3.28
2022-09-04T03:48:40.366Z,2.60
2022-09-04T03:51:32.847Z,3.45
2022-09-04T03:54:18.878Z,2.90
2022-09-04T03:57:03.032Z,2.90
2022-09-04T03:59:52.058Z,3.53
2022-09-04T04:02:47.538Z,2.53
2022-09-04T04:05:30.408Z,2.88
2022-09-04T04:08:22.837Z,3.13
2022-09-04T04:11:16.106Z,2.83
2022-09-04T04:14:04.074Z,3.20
2022-09-04T04:20:05.600Z,2.95
2022-09-04T04:23:17.603Z,2.80
2022-09-04T04:26:00.604Z,2.60
2022-09-04T04:29:02.675Z,2.78
2022-09-04T04:32:08.158Z,2.40
2022-09-04T04:34:47.137Z,2.53
2022-09-04T04:37:43.507Z,2.53
2022-09-04T04:40:15.698Z,2.42
2022-09-04T04:43:10.585Z,2.40
2022-09-04T04:45:51.869Z,2.45
2022-09-04T04:48:18.622Z,2.80
2022-09-04T04:54:09.781Z,2.80
2022-09-04T04:57:05.083Z,3.10
2022-09-04T04:59:58.221Z,2.75
2022-09-04T05:02:38.162Z,2.40
2022-09-04T05:05:13.578Z,2.40
2022-09-04T05:08:07.687Z,2.55
2022-09-04T05:10:58.169Z,2.40
2022-09-04T05:13:30.613Z,2.60
2022-09-04T05:16:22.720Z,2.83
2022-09-04T05:18:59.348Z,2.45
2022-09-04T05:21:52.128Z,2.53
2022-09-04T05:24:44.457Z,2.70
2022-09-04T05:27:39.564Z,2.88
2022-09-04T05:30:09.285Z,2.55
2022-09-04T05:33:08.423Z,2.85
2022-09-04T05:35:55.461Z,2.83
2022-09-04T05:41:06.493Z,2.08
2022-09-04T05:44:16.333Z,2.28
2022-09-04T05:47:26.436Z,2.53
2022-09-04T05:50:08.158Z,2.03
2022-09-04T05:52:44.319Z,2.80
2022-09-04T05:55:45.168Z,2.70
2022-09-04T05:58:40.953Z,3.33
2022-09-04T06:01:52.212Z,3.45
2022-09-04T06:04:37.612Z,2.90
2022-09-04T06:07:31.679Z,2.58
2022-09-04T06:10:49.284Z,3.00
2022-09-04T06:13:42.340Z,2.67
2022-09-04T06:16:39.670Z,2.83
2022-09-04T06:19:15.559Z,2.88
2022-09-04T06:21:58.499Z,3.22
2022-09-04T06:24:36.759Z,3.55
2022-09-04T06:27:35.624Z,2.83
2022-09-04T06:30:09.951Z,3.05
2022-09-04T06:32:55.036Z,2.63
2022-09-04T06:35:44.845Z,2.80
2022-09-04T06:38:14.612Z,2.42
2022-09-04T06:40:48.978Z,2.58
2022-09-04T06:43:19.437Z,2.72
2022-09-04T06:45:55.927Z,2.42
2022-09-04T06:48:49.663Z,2.30
2022-09-04T06:51:29.116Z,2.90
2022-09-04T06:54:20.849Z,2.50
2022-09-04T06:57:00.748Z,2.33
2022-09-04T06:59:27.444Z,2.42
2022-09-04T07:04:51.591Z,2.30
2022-09-04T07:07:34.380Z,2.53
2022-09-04T07:10:10.565Z,2.80
2022-09-04T07:12:56.932Z,2.72
2022-09-04T07:15:45.417Z,2.67
2022-09-04T07:18:23.889Z,2.40
2022-09-04T07:20:59.508Z,2.83
2022-09-04T07:23:41.399Z,2.72
2022-09-04T07:26:26.810Z,2.30
2022-09-04T07:29:13.208Z,2.42
2022-09-04T07:31:55.284Z,3.05
2022-09-04T07:34:32.431Z,2.20
2022-09-04T07:37:27.095Z,2.03
2022-09-04T07:40:12.618Z,2.55
2022-09-04T07:43:28.750Z,2.13
2022-09-04T07:46:06.511Z,2.10
2022-09-04T07:48:41.912Z,2.40
2022-09-04T07:51:14.747Z,1.95
2022-09-04T07:53:47.321Z,2.30
2022-09-04T07:56:23.042Z,2.17
2022-09-04T07:59:21.121Z,2.65
2022-09-04T08:02:03.397Z,2.38
2022-09-04T08:04:46.174Z,2.10
2022-09-04T08:07:21.418Z,1.67
2022-09-04T08:10:23.823Z,1.77
2022-09-04T08:13:36.136Z,2.50
2022-09-04T08:16:13.151Z,2.35
2022-09-04T08:18:50.555Z,2.03
2022-09-04T08:21:31.535Z,2.38
2022-09-04T08:24:10.493Z,2.28
2022-09-04T08:26:52.244Z,2.38
2022-09-04T08:29:58.243Z,2.10
2022-09-04T08:32:28.570Z,2.28
2022-09-04T08:35:10.960Z,2.75
2022-09-04T08:37:56.842Z,2.00
2022-09-04T08:41:14.731Z,2.33
2022-09-04T08:44:09.410Z,2.45
2022-09-04T08:46:59.356Z,2.55
2022-09-04T08:49:38.402Z,2.70
2022-09-04T08:52:23.697Z,2.10
2022-09-04T08:55:08.446Z,2.40
2022-09-04T08:58:18.415Z,2.38
2022-09-04T09:01:16.067Z,2.55
2022-09-04T09:04:34.098Z,3.05
2022-09-04T09:07:22.549Z,2.88
2022-09-04T09:10:04.148Z,2.72
2022-09-04T09:13:02.747Z,2.90
2022-09-04T09:15:48.286Z,2.75
2022-09-04T09:18:33.711Z,2.88
2022-09-04T09:21:10.430Z,2.20
2022-09-04T09:23:58.723Z,2.22
2022-09-04T09:26:30.987Z,3.20
2022-09-04T09:29:16.608Z,2.40
2022-09-04T09:32:04.949Z,2.38
2022-09-04T09:35:02.831Z,2.30
2022-09-04T09:37:53.887Z,2.78
2022-09-04T09:40:48.036Z,2.35
2022-09-04T09:43:53.000Z,2.28
2022-09-04T09:46:47.842Z,2.80
2022-09-04T09:49:36.397Z,2.60
2022-09-04T09:52:29.118Z,2.92
2022-09-04T09:55:13.744Z,2.17
2022-09-04T09:57:59.056Z,3.15
2022-09-04T10:00:59.008Z,2.58
2022-09-04T10:03:41.220Z,2.15
2022-09-04T10:06:35.130Z,2.42
2022-09-04T10:09:42.012Z,2.05
2022-09-04T10:12:20.823Z,2.75
2022-09-04T10:15:27.582Z,1.77
2022-09-04T10:18:32.875Z,1.90
2022-09-04T10:21:20.578Z,2.10
2022-09-04T10:23:57.434Z,1.95
2022-09-04T10:29:23.818Z,2.80
2022-09-04T10:32:12.114Z,2.25
2022-09-04T10:35:12.163Z,3.08
2022-09-04T10:38:12.893Z,1.70
2022-09-04T10:41:14.929Z,1.95
2022-09-04T10:44:00.524Z,2.30
2022-09-04T10:46:51.339Z,2.22
2022-09-04T10:49:20.972Z,1.77
2022-09-04T10:52:07.979Z,1.90
2022-09-04T10:54:54.349Z,1.85
2022-09-04T10:57:42.725Z,1.90
2022-09-04T11:00:19.933Z,1.85
2022-09-04T11:02:52.556Z,1.90
2022-09-04T11:05:55.311Z,2.00
2022-09-04T11:08:26.240Z,1.25
2022-09-04T11:11:11.484Z,1.52
2022-09-04T11:14:20.919Z,2.13
2022-09-04T11:17:12.655Z,1.50
2022-09-04T11:20:18.483Z,1.95
2022-09-04T11:23:07.248Z,1.63
2022-09-04T11:25:54.877Z,1.90
2022-09-04T11:28:45.761Z,1.60
2022-09-04T11:31:40.340Z,1.60
2022-09-04T11:34:32.958Z,1.70
2022-09-04T11:37:10.401Z,1.65
2022-09-04T11:39:58.574Z,1.55
2022-09-04T11:42:50.287Z,1.70
2022-09-04T11:45:41.303Z,1.70
2022-09-04T11:48:21.969Z,2.13
2022-09-04T11:50:57.141Z,1.50
2022-09-04T11:53:36.803Z,1.45
2022-09-04T11:56:21.781Z,1.83
2022-09-04T11:58:48.461Z,1.63
2022-09-04T12:01:35.120Z,1.90
2022-09-04T12:04:23.166Z,1.80
2022-09-04T12:07:16.069Z,1.50
2022-09-04T12:10:11.306Z,1.40
2022-09-04T12:13:27.491Z,1.52
2022-09-04T12:16:18.278Z,1.35
2022-09-04T12:18:54.356Z,1.95
2022-09-04T12:21:43.571Z,1.50
2022-09-04T12:24:48.211Z,1.70
2022-09-04T12:27:54.210Z,1.42
2022-09-04T12:30:49.270Z,1.60
2022-09-04T12:33:45.116Z,2.13
2022-09-04T12:36:21.518Z,1.60
2022-09-04T12:39:07.085Z,1.45
2022-09-04T12:41:41.525Z,1.40
2022-09-04T12:44:30.278Z,1.70
2022-09-04T12:47:13.900Z,1.63
2022-09-04T12:50:02.633Z,1.48
2022-09-04T12:52:57.466Z,1.50
2022-09-04T12:55:45.645Z,1.80
2022-09-04T12:58:31.169Z,1.58
2022-09-04T13:01:00.889Z,1.83
2022-09-04T13:03:30.668Z,1.98
2022-09-04T13:06:28.573Z,1.48
2022-09-04T13:11:44.325Z,1.52
2022-09-04T13:14:38.947Z,1.90
2022-09-04T13:17:23.412Z,1.58
2022-09-04T13:20:11.968Z,1.52
2022-09-04T13:22:50.751Z,2.03
2022-09-04T13:25:27.311Z,1.67
2022-09-04T13:28:20.858Z,1.42
2022-09-04T13:31:06.824Z,1.52
2022-09-04T13:34:07.784Z,1.30
2022-09-04T13:36:49.411Z,1.80
2022-09-04T13:39:47.098Z,1.50
2022-09-04T13:44:54.210Z,1.50
2022-09-04T13:47:32.027Z,1.67
2022-09-04T13:50:09.965Z,1.70
2022-09-04T13:53:10.968Z,1.42
2022-09-04T13:55:54.262Z,1.92
2022-09-04T13:58:26.933Z,2.80
2022-09-04T14:00:59.252Z,2.55
2022-09-04T14:03:39.466Z,2.38
2022-09-04T14:06:10.812Z,2.30
2022-09-04T14:08:39.713Z,1.60
2022-09-04T14:11:41.708Z,1.67
2022-09-04T14:14:18.515Z,1.50
2022-09-04T14:16:45.442Z,1.65
2022-09-04T14:19:42.462Z,1.67
2022-09-04T14:22:40.112Z,1.45
2022-09-04T14:25:12.990Z,1.52
2022-09-04T14:27:42.545Z,1.63
2022-09-04T14:30:22.223Z,1.60
2022-09-04T14:33:07.489Z,1.13
2022-09-04T14:35:49.229Z,1.70
2022-09-04T14:38:48.977Z,1.70
2022-09-04T14:41:38.114Z,1.52
2022-09-04T14:44:50.671Z,1.88
2022-09-04T14:47:38.801Z,1.92
2022-09-04T14:50:13.156Z,1.60
2022-09-04T14:52:48.574Z,1.65
2022-09-04T14:55:28.027Z,1.60
2022-09-04T14:58:19.518Z,1.42
2022-09-04T15:01:20.170Z,1.58
2022-09-04T15:03:50.898Z,1.60
2022-09-04T15:07:01.042Z,1.65
2022-09-04T15:09:38.186Z,1.50
2022-09-04T15:12:26.883Z,1.67
2022-09-04T15:15:37.522Z,1.42
2022-09-04T15:18:24.861Z,1.73
2022-09-04T15:23:40.939Z,1.38
2022-09-04T15:26:28.316Z,1.40
